createdAt,value
2023-02-11T00:01:36.564Z,14.90
2023-02-11T00:04:06.204Z,15.65
2023-02-11T00:06:35.704Z,16.13
2023-02-11T00:09:04.978Z,17.00
2023-02-11T00:11:33.858Z,15.77
2023-02-11T00:14:04.710Z,14.23
2023-02-11T00:16:33.711Z,14.95
2023-02-11T00:19:02.878Z,14.10
2023-02-11T00:21:31.804Z,15.55
2023-02-11T00:24:02.464Z,14.48
2023-02-11T00:26:34.168Z,15.38
2023-02-11T00:29:03.090Z,13.65
2023-02-11T00:31:34.232Z,14.73
2023-02-11T00:34:03.008Z,14.20
2023-02-11T00:36:32.018Z,15.98
2023-02-11T00:39:00.761Z,15.10
2023-02-11T00:41:30.201Z,14.95
2023-02-11T00:44:02.375Z,15.18
2023-02-11T00:46:31.265Z,15.98
2023-02-11T00:48:59.759Z,15.45
2023-02-11T00:51:29.037Z,14.50
2023-02-11T00:53:57.827Z,14.80
2023-02-11T00:56:27.022Z,15.45
2023-02-11T00:58:57.925Z,14.75
2023-02-11T01:01:26.883Z,15.65
2023-02-11T01:03:55.433Z,14.32
2023-02-11T01:06:25.574Z,16.92
2023-02-11T01:08:54.166Z,14.68
2023-02-11T01:11:23.135Z,14.57
2023-02-11T01:13:51.646Z,14.15
2023-02-11T01:16:20.834Z,15.00
2023-02-11T01:18:49.363Z,15.18
2023-02-11T01:21:19.716Z,14.82
2023-02-11T01:23:48.200Z,14.50
2023-02-11T01:26:17.036Z,15.23
2023-02-11T01:28:45.455Z,13.73
2023-02-11T01:31:14.652Z,16.70
2023-02-11T01:33:43.151Z,14.50
2023-02-11T01:36:12.116Z,14.27
2023-02-11T01:38:41.354Z,14.77
2023-02-11T01:41:12.076Z,14.35
2023-02-11T01:43:45.431Z,14.30
2023-02-11T01:46:14.478Z,14.27
2023-02-11T01:48:44.825Z,15.32
2023-02-11T01:51:17.577Z,14.93
2023-02-11T01:54:04.915Z,14.43
2023-02-11T01:56:52.667Z,13.75
2023-02-11T01:59:31.588Z,14.23
2023-02-11T02:02:03.828Z,13.75
2023-02-11T02:04:33.798Z,14.23
2023-02-11T02:07:15.031Z,14.52
2023-02-11T02:09:52.038Z,14.35
2023-02-11T02:12:21.387Z,15.02
2023-02-11T02:14:50.189Z,14.57
2023-02-11T02:17:32.845Z,14.73
2023-02-11T02:20:23.231Z,14.60
2023-02-11T02:23:10.865Z,13.95
2023-02-11T02:26:05.034Z,12.90
2023-02-11T02:28:56.359Z,14.70
2023-02-11T02:31:47.518Z,14.38
2023-02-11T02:34:20.415Z,14.68
2023-02-11T02:36:53.621Z,13.18
2023-02-11T02:39:27.361Z,14.38
2023-02-11T02:41:56.100Z,13.98
2023-02-11T02:44:25.124Z,14.13
2023-02-11T02:46:53.954Z,13.23
2023-02-11T02:49:22.984Z,13.93
2023-02-11T02:52:18.834Z,13.25
2023-02-11T02:55:02.912Z,14.48
2023-02-11T02:57:54.321Z,13.18
2023-02-11T03:00:44.589Z,14.63
2023-02-11T03:03:24.717Z,13.00
2023-02-11T03:06:07.765Z,13.60
2023-02-11T03:08:47.460Z,13.48
2023-02-11T03:11:17.657Z,13.70
2023-02-11T03:13:46.508Z,11.95
2023-02-11T03:16:23.782Z,13.50
2023-02-11T03:19:04.283Z,13.88
2023-02-11T03:21:33.316Z,13.13
2023-02-11T03:24:03.386Z,13.98
2023-02-11T03:26:41.438Z,13.55
2023-02-11T03:29:16.168Z,13.57
2023-02-11T03:32:05.765Z,12.93
2023-02-11T03:34:48.174Z,13.13
2023-02-11T03:37:35.230Z,12.52
2023-02-11T03:40:05.489Z,13.30
2023-02-11T03:42:37.885Z,12.98
2023-02-11T03:45:09.279Z,13.98
2023-02-11T03:47:40.660Z,12.90
2023-02-11T03:50:10.959Z,12.82
2023-02-11T03:52:40.336Z,13.80
2023-02-11T03:55:19.239Z,12.77
2023-02-11T03:57:48.724Z,13.30
2023-02-11T04:00:17.556Z,13.10
2023-02-11T04:02:46.563Z,13.23
2023-02-11T04:05:16.665Z,12.93
2023-02-11T04:07:45.655Z,13.73
2023-02-11T04:10:14.471Z,14.70
2023-02-11T04:12:43.772Z,12.23
2023-02-11T04:15:12.534Z,13.82
2023-02-11T04:17:41.653Z,12.85
2023-02-11T04:20:10.901Z,13.38
2023-02-11T04:22:40.305Z,13.20
2023-02-11T04:25:09.644Z,12.75
2023-02-11T04:27:38.766Z,14.00
2023-02-11T04:30:08.028Z,12.75
2023-02-11T04:32:37.184Z,13.57
2023-02-11T04:35:06.491Z,12.27
2023-02-11T04:37:35.928Z,13.18
2023-02-11T04:40:04.866Z,13.40
2023-02-11T04:42:33.661Z,13.25
2023-02-11T04:45:02.100Z,13.82
2023-02-11T04:47:30.874Z,13.93
2023-02-11T04:49:59.204Z,14.70
2023-02-11T04:52:27.941Z,14.48
2023-02-11T04:54:56.293Z,13.43
2023-02-11T04:57:25.002Z,14.93
2023-02-11T04:59:53.332Z,15.65
2023-02-11T05:02:22.067Z,15.10
2023-02-11T05:04:50.439Z,14.95
2023-02-11T05:07:19.162Z,15.50
2023-02-11T05:09:47.539Z,16.63
2023-02-11T05:12:16.524Z,16.90
2023-02-11T05:14:44.845Z,18.58
2023-02-11T05:17:13.431Z,18.98
2023-02-11T05:19:42.898Z,19.88
2023-02-11T05:22:11.665Z,22.33
2023-02-11T05:24:40.109Z,24.35
2023-02-11T05:27:08.729Z,28.73
2023-02-11T05:29:37.168Z,27.98
2023-02-11T05:32:07.480Z,28.83
2023-02-11T05:34:36.707Z,28.95
2023-02-11T05:37:05.514Z,30.65
2023-02-11T05:39:33.888Z,32.97
2023-02-11T05:42:02.569Z,33.13
2023-02-11T05:44:30.888Z,34.75
2023-02-11T05:46:59.558Z,37.95
2023-02-11T05:49:27.833Z,41.13
2023-02-11T05:51:56.480Z,43.90
2023-02-11T05:54:24.804Z,45.13
2023-02-11T05:56:54.028Z,47.13
2023-02-11T05:59:22.299Z,48.88
2023-02-11T06:01:50.970Z,49.25
2023-02-11T06:04:19.357Z,50.60
2023-02-11T06:06:48.159Z,49.58
2023-02-11T06:09:16.591Z,50.95
2023-02-11T06:11:45.240Z,54.05
2023-02-11T06:14:14.748Z,53.80
2023-02-11T06:16:43.414Z,55.25
2023-02-11T06:19:12.642Z,56.35
2023-02-11T06:21:44.067Z,55.83
2023-02-11T06:24:13.170Z,53.70
2023-02-11T06:26:41.753Z,52.40
2023-02-11T06:29:10.173Z,55.53
2023-02-11T06:31:39.652Z,54.75
2023-02-11T06:34:09.918Z,55.50
2023-02-11T06:36:41.721Z,53.95
2023-02-11T06:39:10.609Z,53.70
2023-02-11T06:41:39.375Z,53.38
2023-02-11T06:44:07.936Z,55.65
2023-02-11T06:46:36.718Z,54.22
2023-02-11T06:49:05.166Z,53.60
2023-02-11T06:51:33.878Z,52.67
2023-02-11T06:54:02.270Z,57.35
2023-02-11T06:56:30.995Z,55.60
2023-02-11T06:58:59.440Z,56.00
2023-02-11T07:01:28.526Z,55.67
2023-02-11T07:03:56.968Z,58.17
2023-02-11T07:06:28.295Z,56.83
2023-02-11T07:08:56.852Z,57.53
2023-02-11T07:11:28.038Z,58.22
2023-02-11T07:14:01.171Z,58.70
2023-02-11T07:16:29.998Z,60.97
2023-02-11T07:18:58.698Z,60.20
2023-02-11T07:21:27.497Z,61.35
2023-02-11T07:23:55.912Z,60.63
2023-02-11T07:26:26.007Z,61.10
2023-02-11T07:28:54.506Z,58.55
2023-02-11T07:31:26.476Z,60.75
2023-02-11T07:33:56.901Z,61.58
2023-02-11T07:36:26.353Z,61.67
2023-02-11T07:38:54.750Z,62.25
2023-02-11T07:41:24.942Z,60.63
2023-02-11T07:43:53.365Z,57.92
2023-02-11T07:46:25.244Z,61.45
2023-02-11T07:48:53.830Z,58.42
2023-02-11T07:51:28.294Z,55.95
2023-02-11T07:53:58.338Z,56.08
2023-02-11T07:56:27.516Z,57.33
2023-02-11T07:58:57.021Z,55.83
2023-02-11T08:01:28.624Z,56.75
2023-02-11T08:03:58.474Z,55.50
2023-02-11T08:06:30.528Z,53.13
2023-02-11T08:08:59.206Z,52.17
2023-02-11T08:11:28.988Z,53.92
2023-02-11T08:13:57.552Z,51.15
2023-02-11T08:16:34.776Z,50.78
2023-02-11T08:19:06.808Z,48.88
2023-02-11T08:21:35.518Z,48.10
2023-02-11T08:24:04.149Z,47.97
2023-02-11T08:26:35.117Z,47.75
2023-02-11T08:29:08.362Z,48.58
2023-02-11T08:31:40.483Z,46.78
2023-02-11T08:34:10.308Z,47.63
2023-02-11T08:36:39.713Z,45.67
2023-02-11T08:39:19.697Z,43.35
2023-02-11T08:41:51.425Z,43.75
2023-02-11T08:44:20.821Z,44.28
2023-02-11T08:46:50.197Z,41.83
2023-02-11T08:49:18.920Z,41.88
2023-02-11T08:51:47.732Z,40.90
2023-02-11T08:54:16.276Z,39.90
2023-02-11T08:56:45.040Z,41.80
2023-02-11T08:59:14.922Z,38.50
2023-02-11T09:01:44.661Z,37.42
2023-02-11T09:04:13.922Z,36.28
2023-02-11T09:06:42.648Z,35.35
2023-02-11T09:09:13.744Z,35.65
2023-02-11T09:11:43.391Z,36.28
2023-02-11T09:14:22.602Z,36.67
2023-02-11T09:16:52.056Z,30.90
2023-02-11T09:19:21.078Z,31.67
2023-02-11T09:21:49.836Z,31.70
2023-02-11T09:24:18.767Z,31.92
2023-02-11T09:26:47.473Z,32.38
2023-02-11T09:29:15.840Z,30.77
2023-02-11T09:31:44.697Z,29.63
2023-02-11T09:34:13.473Z,31.35
2023-02-11T09:36:42.534Z,29.38
2023-02-11T09:39:17.212Z,29.50
2023-02-11T09:42:07.899Z,30.05
2023-02-11T09:44:37.229Z,30.75
2023-02-11T09:47:28.788Z,28.60
2023-02-11T09:50:29.561Z,28.58
2023-02-11T09:53:25.979Z,28.20
2023-02-11T09:55:57.370Z,26.98
2023-02-11T09:58:35.341Z,27.88
2023-02-11T10:01:24.975Z,28.42
2023-02-11T10:04:50.139Z,26.55
2023-02-11T10:07:32.009Z,26.65
2023-02-11T10:10:28.260Z,26.90
2023-02-11T10:13:24.251Z,25.55
2023-02-11T10:16:06.759Z,25.70
2023-02-11T10:19:18.371Z,25.75
2023-02-11T10:22:07.396Z,25.13
2023-02-11T10:24:35.843Z,24.10
2023-02-11T10:27:16.990Z,24.77
2023-02-11T10:30:02.830Z,25.65
2023-02-11T10:32:33.530Z,23.38
2023-02-11T10:35:10.960Z,26.05
2023-02-11T10:37:39.810Z,24.77
2023-02-11T10:40:15.535Z,24.10
2023-02-11T10:42:48.682Z,23.35
2023-02-11T10:45:52.763Z,23.55
2023-02-11T10:48:44.155Z,22.88
2023-02-11T10:51:34.569Z,22.90
2023-02-11T10:54:13.831Z,21.90
2023-02-11T10:56:50.911Z,23.45
2023-02-11T10:59:22.490Z,21.42
2023-02-11T11:01:57.331Z,21.95
2023-02-11T11:04:35.764Z,22.70
2023-02-11T11:07:31.463Z,21.50
2023-02-11T11:10:12.153Z,22.13
2023-02-11T11:12:47.534Z,22.10
2023-02-11T11:15:28.185Z,23.02
2023-02-11T11:18:21.885Z,21.90
2023-02-11T11:21:02.133Z,22.95
2023-02-11T11:23:30.966Z,21.77
2023-02-11T11:26:11.333Z,21.45
2023-02-11T11:28:52.620Z,22.15
2023-02-11T11:31:28.655Z,21.75
2023-02-11T11:33:59.447Z,21.38
2023-02-11T11:36:37.251Z,21.23
2023-02-11T11:39:21.108Z,21.38
2023-02-11T11:41:58.221Z,20.55
2023-02-11T11:44:40.317Z,21.60
2023-02-11T11:47:08.994Z,19.70
2023-02-11T11:50:01.184Z,18.70
2023-02-11T11:52:34.742Z,21.53
2023-02-11T11:55:08.129Z,19.17
2023-02-11T11:57:38.832Z,20.83
2023-02-11T12:00:17.753Z,21.98
2023-02-11T12:03:09.964Z,19.42
2023-02-11T12:06:00.501Z,19.58
2023-02-11T12:09:01.284Z,20.58
2023-02-11T12:12:23.825Z,20.65
2023-02-11T12:15:13.863Z,20.73
2023-02-11T12:17:52.087Z,20.55
2023-02-11T12:20:56.179Z,18.98
2023-02-11T12:24:16.939Z,21.48
2023-02-11T12:27:33.094Z,19.15
2023-02-11T12:30:22.736Z,20.17
2023-02-11T12:33:17.000Z,20.52
2023-02-11T12:36:08.550Z,20.75
2023-02-11T12:39:03.899Z,19.55
2023-02-11T12:42:32.471Z,19.38
2023-02-11T12:45:16.418Z,20.73
2023-02-11T12:47:49.145Z,20.70
2023-02-11T12:53:48.143Z,19.50
2023-02-11T12:56:40.673Z,19.30
2023-02-11T12:59:21.696Z,19.75
2023-02-11T13:01:50.447Z,20.35
2023-02-11T13:04:43.976Z,19.40
2023-02-11T13:07:48.968Z,18.38
2023-02-11T13:10:55.127Z,18.70
2023-02-11T13:13:33.369Z,18.70
2023-02-11T13:16:08.001Z,19.77
2023-02-11T13:19:01.916Z,18.73
2023-02-11T13:21:57.499Z,18.95
2023-02-11T13:24:44.813Z,19.40
2023-02-11T13:27:42.963Z,17.92
2023-02-11T13:30:35.700Z,18.05
2023-02-11T13:33:26.838Z,17.63
2023-02-11T13:35:58.285Z,16.83
2023-02-11T13:38:30.703Z,17.95
2023-02-11T13:44:02.348Z,16.60
2023-02-11T13:47:06.201Z,16.13
2023-02-11T13:49:42.305Z,15.48
2023-02-11T13:52:23.717Z,15.95
2023-02-11T13:54:53.257Z,15.90
2023-02-11T13:57:21.834Z,16.00
2023-02-11T13:59:52.846Z,15.65
2023-02-11T14:02:54.936Z,15.98
2023-02-11T14:05:51.535Z,15.23
2023-02-11T14:08:43.297Z,15.38
2023-02-11T14:11:35.428Z,15.55
2023-02-11T14:14:33.726Z,15.50
2023-02-11T14:17:19.188Z,13.95
2023-02-11T14:19:49.590Z,14.48
2023-02-11T14:22:29.807Z,15.35
2023-02-11T14:25:01.260Z,15.30
2023-02-11T14:27:44.691Z,14.75
2023-02-11T14:30:24.379Z,14.38
2023-02-11T14:33:07.299Z,14.95
2023-02-11T14:36:00.364Z,14.13
2023-02-11T14:38:58.393Z,14.57
2023-02-11T14:41:46.419Z,14.38
2023-02-11T14:44:21.620Z,13.57
2023-02-11T14:46:52.759Z,13.82
2023-02-11T14:49:36.824Z,14.00
2023-02-11T14:52:30.509Z,13.65
2023-02-11T14:55:09.483Z,14.60
2023-02-11T14:57:38.200Z,15.48
2023-02-11T15:00:19.935Z,13.73
2023-02-11T15:02:49.117Z,15.25
2023-02-11T15:05:27.436Z,14.93
2023-02-11T15:08:02.150Z,14.50
2023-02-11T15:10:52.348Z,15.23
2023-02-11T15:13:23.220Z,14.48
2023-02-11T15:15:51.751Z,13.75
2023-02-11T15:18:24.561Z,13.65
2023-02-11T15:20:53.398Z,14.65
2023-02-11T15:23:25.711Z,14.57
2023-02-11T15:25:56.588Z,16.08
2023-02-11T15:28:33.565Z,13.50
2023-02-11T15:31:13.138Z,13.70
2023-02-11T15:33:41.986Z,14.07
2023-02-11T15:36:12.530Z,14.70
2023-02-11T15:38:41.396Z,14.18
2023-02-11T15:41:36.992Z,14.82
2023-02-11T15:44:05.720Z,14.50
2023-02-11T15:46:38.999Z,14.50
2023-02-11T15:49:16.480Z,14.40
2023-02-11T15:51:45.952Z,14.98
2023-02-11T15:54:27.223Z,16.00
2023-02-11T15:57:01.928Z,15.70
2023-02-11T15:59:36.092Z,16.02
2023-02-11T16:02:22.066Z,15.48
2023-02-11T16:04:56.964Z,15.43
2023-02-11T16:08:34.826Z,16.10
2023-02-11T16:11:09.162Z,14.75
2023-02-11T16:13:47.577Z,15.25
2023-02-11T16:16:33.809Z,15.77
2023-02-11T16:19:05.179Z,17.02
2023-02-11T16:21:39.555Z,17.55
2023-02-11T16:24:08.470Z,17.80
2023-02-11T16:26:41.283Z,16.23
2023-02-11T16:29:20.592Z,17.45
2023-02-11T16:31:50.557Z,16.48
2023-02-11T16:34:24.167Z,15.13
2023-02-11T16:36:53.037Z,15.80
2023-02-11T16:39:24.864Z,17.85
2023-02-11T16:41:53.816Z,17.47
2023-02-11T16:44:22.255Z,18.40
2023-02-11T16:46:52.463Z,19.63
2023-02-11T16:49:26.492Z,18.55
2023-02-11T16:51:59.005Z,17.63
2023-02-11T16:54:27.925Z,19.10
2023-02-11T16:56:56.777Z,16.25
2023-02-11T16:59:25.247Z,18.30
2023-02-11T17:01:54.309Z,17.83
2023-02-11T17:04:26.271Z,19.00
2023-02-11T17:06:57.988Z,17.70
2023-02-11T17:09:30.648Z,17.20
2023-02-11T17:12:00.432Z,17.40
2023-02-11T17:14:28.910Z,16.15
2023-02-11T17:16:57.831Z,17.33
2023-02-11T17:19:26.208Z,16.10
2023-02-11T17:21:55.275Z,15.93
2023-02-11T17:24:23.793Z,18.05
2023-02-11T17:26:52.784Z,17.10
2023-02-11T17:29:24.064Z,16.60
2023-02-11T17:31:53.480Z,17.08
2023-02-11T17:34:22.776Z,17.33
2023-02-11T17:36:52.100Z,17.55
2023-02-11T17:39:21.344Z,16.65
2023-02-11T17:41:50.299Z,17.63
2023-02-11T17:44:18.752Z,16.63
2023-02-11T17:46:47.618Z,17.58
2023-02-11T17:49:16.687Z,17.65
2023-02-11T17:51:45.834Z,16.52
2023-02-11T17:54:17.441Z,17.48
2023-02-11T17:56:46.461Z,17.58
2023-02-11T17:59:14.905Z,17.73
2023-02-11T18:01:44.231Z,18.17
2023-02-11T18:04:15.662Z,17.40
2023-02-11T18:06:44.733Z,17.23
2023-02-11T18:09:13.361Z,18.17
2023-02-11T18:11:42.312Z,17.27
2023-02-11T18:14:11.057Z,18.23
2023-02-11T18:16:43.210Z,18.38
2023-02-11T18:19:12.622Z,18.67
2023-02-11T18:21:41.796Z,19.13
2023-02-11T18:24:10.416Z,19.45
2023-02-11T18:26:39.219Z,18.77
2023-02-11T18:29:07.828Z,19.00
2023-02-11T18:31:36.743Z,18.17
2023-02-11T18:34:07.629Z,19.20
2023-02-11T18:36:36.938Z,18.40
2023-02-11T18:39:05.970Z,20.02
2023-02-11T18:41:35.240Z,19.98
2023-02-11T18:44:05.160Z,18.60
2023-02-11T18:46:59.533Z,19.40
2023-02-11T18:49:28.075Z,17.30
2023-02-11T18:51:58.797Z,17.85
2023-02-11T18:54:27.419Z,18.92
2023-02-11T18:56:56.284Z,19.67
2023-02-11T18:59:24.825Z,20.65
2023-02-11T19:01:53.602Z,19.65
2023-02-11T19:04:23.465Z,17.90
2023-02-11T19:06:52.513Z,19.50
2023-02-11T19:09:21.163Z,18.30
2023-02-11T19:11:50.590Z,19.65
2023-02-11T19:14:32.304Z,18.60
2023-02-11T19:17:04.094Z,19.63
2023-02-11T19:19:34.336Z,19.15
2023-02-11T19:22:03.926Z,19.33
2023-02-11T19:24:32.817Z,20.33
2023-02-11T19:27:03.437Z,20.45
2023-02-11T19:29:35.489Z,21.40
2023-02-11T19:32:06.186Z,21.40
2023-02-11T19:34:41.427Z,20.10
2023-02-11T19:37:12.941Z,21.13
2023-02-11T19:39:42.458Z,20.27
2023-02-11T19:42:12.376Z,22.95
2023-02-11T19:44:41.123Z,21.45
2023-02-11T19:47:10.714Z,22.63
2023-02-11T19:49:39.303Z,21.35
2023-02-11T19:52:08.303Z,20.13
2023-02-11T19:54:38.052Z,21.05
2023-02-11T19:57:06.975Z,19.52
2023-02-11T19:59:35.566Z,20.60
2023-02-11T20:02:04.572Z,21.27
2023-02-11T20:04:34.332Z,21.55
2023-02-11T20:07:03.273Z,20.83
2023-02-11T20:09:32.078Z,22.42
2023-02-11T20:12:01.041Z,23.60
2023-02-11T20:14:29.743Z,20.92
2023-02-11T20:16:58.704Z,20.42
2023-02-11T20:19:28.149Z,23.55
2023-02-11T20:21:57.190Z,22.10
2023-02-11T20:24:25.882Z,23.67
2023-02-11T20:26:56.191Z,24.88
2023-02-11T20:29:25.116Z,22.95
2023-02-11T20:31:54.664Z,22.60
2023-02-11T20:34:23.538Z,23.00
2023-02-11T20:36:52.999Z,23.85
2023-02-11T20:39:22.984Z,24.45
2023-02-11T20:41:52.545Z,24.13
2023-02-11T20:44:24.281Z,23.88
2023-02-11T20:46:54.579Z,26.17
2023-02-11T20:49:25.000Z,24.17
2023-02-11T20:51:54.421Z,23.85
2023-02-11T20:54:23.699Z,24.92
2023-02-11T20:56:54.109Z,25.80
2023-02-11T20:59:22.917Z,25.08
2023-02-11T21:01:54.337Z,24.70
2023-02-11T21:04:28.554Z,24.25
2023-02-11T21:07:00.380Z,23.60
2023-02-11T21:09:31.750Z,24.02
2023-02-11T21:12:01.196Z,25.52
2023-02-11T21:14:30.273Z,25.88
2023-02-11T21:16:59.296Z,25.17
2023-02-11T21:19:27.942Z,26.13
2023-02-11T21:21:57.570Z,27.17
2023-02-11T21:24:26.069Z,26.45
2023-02-11T21:26:55.132Z,25.88
2023-02-11T21:29:23.616Z,28.23
2023-02-11T21:31:52.862Z,27.50
2023-02-11T21:34:21.547Z,28.13
2023-02-11T21:36:51.521Z,27.17
2023-02-11T21:39:20.613Z,29.98
2023-02-11T21:41:49.588Z,29.33
2023-02-11T21:44:18.786Z,29.38
2023-02-11T21:46:47.821Z,28.30
2023-02-11T21:49:16.378Z,30.70
2023-02-11T21:51:45.266Z,29.83
2023-02-11T21:54:13.978Z,32.20
2023-02-11T21:56:42.816Z,30.63
2023-02-11T21:59:14.144Z,30.60
2023-02-11T22:01:43.026Z,29.80
2023-02-11T22:04:11.674Z,30.98
2023-02-11T22:06:40.509Z,31.50
2023-02-11T22:09:10.001Z,30.75
2023-02-11T22:11:38.882Z,29.48
2023-02-11T22:14:07.430Z,30.77
2023-02-11T22:16:36.682Z,28.50
2023-02-11T22:19:07.647Z,30.38
2023-02-11T22:21:36.598Z,30.05
2023-02-11T22:24:05.617Z,30.90
2023-02-11T22:26:34.621Z,31.65
2023-02-11T22:29:03.383Z,30.63
2023-02-11T22:31:33.922Z,30.65
2023-02-11T22:34:03.332Z,30.67
2023-02-11T22:36:38.303Z,30.98
2023-02-11T22:39:16.585Z,32.33
2023-02-11T22:41:46.189Z,31.45
2023-02-11T22:44:16.630Z,32.25
2023-02-11T22:46:45.548Z,30.27
2023-02-11T22:49:15.233Z,30.17
2023-02-11T22:51:44.283Z,30.23
2023-02-11T22:54:17.719Z,29.65
2023-02-11T22:56:49.826Z,28.67
2023-02-11T22:59:18.464Z,31.23
2023-02-11T23:01:47.496Z,30.38
2023-02-11T23:04:17.092Z,30.88
2023-02-11T23:06:47.778Z,30.17
2023-02-11T23:09:16.335Z,30.60
2023-02-11T23:11:45.277Z,32.60
2023-02-11T23:14:13.881Z,30.90
2023-02-11T23:16:43.007Z,31.23
2023-02-11T23:19:12.561Z,31.55
2023-02-11T23:21:41.540Z,30.75
2023-02-11T23:24:14.268Z,32.90
2023-02-11T23:29:12.088Z,29.88
2023-02-11T23:31:44.132Z,32.55
2023-02-11T23:34:17.318Z,32.67
2023-02-11T23:36:46.186Z,31.63
2023-02-11T23:39:15.929Z,31.58
2023-02-11T23:41:45.685Z,30.92
2023-02-11T23:44:14.163Z,32.25
2023-02-11T23:46:43.049Z,33.65
2023-02-11T23:49:11.427Z,31.48
2023-02-11T23:51:40.061Z,31.40
2023-02-11T23:54:12.266Z,33.10
2023-02-11T23:56:42.550Z,31.45
2023-02-11T23:59:12.003Z,32.05
